sensor_id;sensor_type;location;lat;lon;timestamp;P1;durP1;ratioP1;P2;durP2;ratioP2
793;SDS011;380;48.738;9.214;2023-04-24T00:00:55;1.27;;;0.55;;
793;SDS011;380;48.738;9.214;2023-04-24T00:03:22;0.77;;;0.40;;
793;SDS011;380;48.738;9.214;2023-04-24T00:05:48;0.95;;;0.50;;
793;SDS011;380;48.738;9.214;2023-04-24T00:08:15;0.90;;;0.52;;
793;SDS011;380;48.738;9.214;2023-04-24T00:10:41;1.05;;;0.60;;
793;SDS011;380;48.738;9.214;2023-04-24T00:13:07;1.10;;;0.47;;
793;SDS011;380;48.738;9.214;2023-04-24T00:15:34;1.45;;;0.52;;
793;SDS011;380;48.738;9.214;2023-04-24T00:17:59;2.90;;;0.60;;
793;SDS011;380;48.738;9.214;2023-04-24T00:20:26;1.48;;;0.50;;
793;SDS011;380;48.738;9.214;2023-04-24T00:22:54;2.35;;;0.80;;
793;SDS011;380;48.738;9.214;2023-04-24T00:25:20;2.28;;;0.65;;
793;SDS011;380;48.738;9.214;2023-04-24T00:27:46;1.27;;;0.68;;
793;SDS011;380;48.738;9.214;2023-04-24T00:30:12;1.50;;;0.60;;
793;SDS011;380;48.738;9.214;2023-04-24T00:32:38;1.42;;;0.50;;
793;SDS011;380;48.738;9.214;2023-04-24T00:35:04;1.73;;;0.55;;
793;SDS011;380;48.738;9.214;2023-04-24T00:37:30;1.15;;;0.50;;
793;SDS011;380;48.738;9.214;2023-04-24T00:39:56;1.48;;;0.70;;
793;SDS011;380;48.738;9.214;2023-04-24T00:42:22;0.80;;;0.32;;
793;SDS011;380;48.738;9.214;2023-04-24T00:44:49;1.10;;;0.45;;
793;SDS011;380;48.738;9.214;2023-04-24T00:47:15;1.25;;;0.30;;
793;SDS011;380;48.738;9.214;2023-04-24T00:49:41;1.90;;;0.80;;
793;SDS011;380;48.738;9.214;2023-04-24T00:52:07;2.67;;;0.35;;
793;SDS011;380;48.738;9.214;2023-04-24T00:54:34;1.90;;;0.65;;
793;SDS011;380;48.738;9.214;2023-04-24T00:57:01;0.45;;;0.25;;
793;SDS011;380;48.738;9.214;2023-04-24T00:59:27;3.13;;;0.38;;
793;SDS011;380;48.738;9.214;2023-04-24T01:01:53;1.75;;;0.50;;
793;SDS011;380;48.738;9.214;2023-04-24T01:04:19;0.95;;;0.55;;
793;SDS011;380;48.738;9.214;2023-04-24T01:06:45;0.40;;;0.20;;
793;SDS011;380;48.738;9.214;2023-04-24T01:09:11;1.67;;;0.65;;
793;SDS011;380;48.738;9.214;2023-04-24T01:11:38;0.93;;;0.57;;
793;SDS011;380;48.738;9.214;2023-04-24T01:14:05;0.93;;;0.25;;
793;SDS011;380;48.738;9.214;2023-04-24T01:16:31;0.45;;;0.25;;
793;SDS011;380;48.738;9.214;2023-04-24T01:18:58;1.23;;;0.55;;
793;SDS011;380;48.738;9.214;2023-04-24T01:21:24;3.20;;;0.70;;
793;SDS011;380;48.738;9.214;2023-04-24T01:23:55;0.47;;;0.20;;
793;SDS011;380;48.738;9.214;2023-04-24T01:26:22;0.95;;;0.38;;
793;SDS011;380;48.738;9.214;2023-04-24T01:28:50;0.77;;;0.30;;
793;SDS011;380;48.738;9.214;2023-04-24T01:31:16;1.35;;;0.47;;
793;SDS011;380;48.738;9.214;2023-04-24T01:33:42;1.33;;;0.57;;
793;SDS011;380;48.738;9.214;2023-04-24T01:36:09;1.27;;;0.43;;
793;SDS011;380;48.738;9.214;2023-04-24T01:38:36;0.63;;;0.30;;
793;SDS011;380;48.738;9.214;2023-04-24T01:41:02;1.45;;;0.40;;
793;SDS011;380;48.738;9.214;2023-04-24T01:43:28;1.45;;;0.40;;
793;SDS011;380;48.738;9.214;2023-04-24T01:45:54;3.40;;;0.40;;
793;SDS011;380;48.738;9.214;2023-04-24T01:48:20;1.30;;;0.60;;
793;SDS011;380;48.738;9.214;2023-04-24T01:50:46;0.65;;;0.25;;
793;SDS011;380;48.738;9.214;2023-04-24T01:53:12;1.13;;;0.50;;
793;SDS011;380;48.738;9.214;2023-04-24T01:55:38;1.27;;;0.55;;
793;SDS011;380;48.738;9.214;2023-04-24T01:58:04;1.23;;;0.57;;
793;SDS011;380;48.738;9.214;2023-04-24T02:00:30;1.83;;;0.70;;
793;SDS011;380;48.738;9.214;2023-04-24T02:02:56;1.25;;;0.65;;
793;SDS011;380;48.738;9.214;2023-04-24T02:05:22;0.85;;;0.30;;
793;SDS011;380;48.738;9.214;2023-04-24T02:07:48;0.93;;;0.30;;
793;SDS011;380;48.738;9.214;2023-04-24T02:10:14;0.70;;;0.30;;
793;SDS011;380;48.738;9.214;2023-04-24T02:12:40;0.68;;;0.30;;
793;SDS011;380;48.738;9.214;2023-04-24T02:15:06;1.50;;;0.43;;
793;SDS011;380;48.738;9.214;2023-04-24T02:17:32;1.02;;;0.32;;
793;SDS011;380;48.738;9.214;2023-04-24T02:19:58;0.35;;;0.25;;
793;SDS011;380;48.738;9.214;2023-04-24T02:22:24;1.60;;;0.60;;
793;SDS011;380;48.738;9.214;2023-04-24T02:24:50;0.77;;;0.38;;
793;SDS011;380;48.738;9.214;2023-04-24T02:27:16;0.28;;;0.15;;
793;SDS011;380;48.738;9.214;2023-04-24T02:29:42;0.47;;;0.20;;
793;SDS011;380;48.738;9.214;2023-04-24T02:32:08;0.35;;;0.25;;
793;SDS011;380;48.738;9.214;2023-04-24T02:34:36;1.17;;;0.43;;
793;SDS011;380;48.738;9.214;2023-04-24T02:37:02;0.93;;;0.45;;
793;SDS011;380;48.738;9.214;2023-04-24T02:39:28;1.00;;;0.43;;
793;SDS011;380;48.738;9.214;2023-04-24T02:41:54;1.02;;;0.43;;
793;SDS011;380;48.738;9.214;2023-04-24T02:44:20;1.77;;;0.60;;
793;SDS011;380;48.738;9.214;2023-04-24T02:46:47;1.20;;;0.52;;
793;SDS011;380;48.738;9.214;2023-04-24T02:49:13;1.63;;;0.40;;
793;SDS011;380;48.738;9.214;2023-04-24T02:51:39;1.38;;;0.43;;
793;SDS011;380;48.738;9.214;2023-04-24T02:54:06;0.65;;;0.30;;
793;SDS011;380;48.738;9.214;2023-04-24T02:56:33;0.55;;;0.20;;
793;SDS011;380;48.738;9.214;2023-04-24T02:58:59;0.32;;;0.13;;
793;SDS011;380;48.738;9.214;2023-04-24T03:01:25;0.85;;;0.43;;
793;SDS011;380;48.738;9.214;2023-04-24T03:03:51;0.60;;;0.30;;
793;SDS011;380;48.738;9.214;2023-04-24T03:06:17;0.68;;;0.20;;
793;SDS011;380;48.738;9.214;2023-04-24T03:08:42;1.05;;;0.45;;
793;SDS011;380;48.738;9.214;2023-04-24T03:11:08;0.82;;;0.40;;
793;SDS011;380;48.738;9.214;2023-04-24T03:13:34;0.93;;;0.30;;
793;SDS011;380;48.738;9.214;2023-04-24T03:16:00;1.17;;;0.30;;
793;SDS011;380;48.738;9.214;2023-04-24T03:18:26;1.67;;;0.47;;
793;SDS011;380;48.738;9.214;2023-04-24T03:20:52;0.93;;;0.40;;
793;SDS011;380;48.738;9.214;2023-04-24T03:23:18;0.65;;;0.30;;
793;SDS011;380;48.738;9.214;2023-04-24T03:25:44;0.80;;;0.30;;
793;SDS011;380;48.738;9.214;2023-04-24T03:28:10;1.98;;;0.55;;
793;SDS011;380;48.738;9.214;2023-04-24T03:30:36;0.63;;;0.35;;
793;SDS011;380;48.738;9.214;2023-04-24T03:33:02;0.95;;;0.30;;
793;SDS011;380;48.738;9.214;2023-04-24T03:35:28;2.13;;;0.20;;
793;SDS011;380;48.738;9.214;2023-04-24T03:37:55;1.35;;;0.63;;
793;SDS011;380;48.738;9.214;2023-04-24T03:40:20;2.05;;;0.77;;
793;SDS011;380;48.738;9.214;2023-04-24T03:42:46;0.80;;;0.40;;
793;SDS011;380;48.738;9.214;2023-04-24T03:45:12;0.30;;;0.17;;
793;SDS011;380;48.738;9.214;2023-04-24T03:47:38;1.05;;;0.50;;
793;SDS011;380;48.738;9.214;2023-04-24T03:50:04;2.15;;;0.50;;
793;SDS011;380;48.738;9.214;2023-04-24T03:52:30;0.82;;;0.40;;
793;SDS011;380;48.738;9.214;2023-04-24T03:54:56;1.60;;;1.17;;
793;SDS011;380;48.738;9.214;2023-04-24T03:57:22;1.65;;;0.40;;
793;SDS011;380;48.738;9.214;2023-04-24T03:59:48;1.00;;;0.40;;
793;SDS011;380;48.738;9.214;2023-04-24T04:02:14;0.60;;;0.32;;
793;SDS011;380;48.738;9.214;2023-04-24T04:04:40;1.83;;;0.40;;
793;SDS011;380;48.738;9.214;2023-04-24T04:07:06;1.15;;;0.40;;
793;SDS011;380;48.738;9.214;2023-04-24T04:09:32;0.82;;;0.30;;
793;SDS011;380;48.738;9.214;2023-04-24T04:11:58;1.00;;;0.40;;
793;SDS011;380;48.738;9.214;2023-04-24T04:14:25;0.80;;;0.38;;
793;SDS011;380;48.738;9.214;2023-04-24T04:16:51;1.65;;;0.40;;
793;SDS011;380;48.738;9.214;2023-04-24T04:19:17;0.60;;;0.30;;
793;SDS011;380;48.738;9.214;2023-04-24T04:21:43;1.23;;;0.30;;
793;SDS011;380;48.738;9.214;2023-04-24T04:24:10;0.85;;;0.32;;
793;SDS011;380;48.738;9.214;2023-04-24T04:26:36;1.38;;;0.45;;
793;SDS011;380;48.738;9.214;2023-04-24T04:29:02;1.73;;;0.60;;
793;SDS011;380;48.738;9.214;2023-04-24T04:31:29;0.98;;;0.35;;
793;SDS011;380;48.738;9.214;2023-04-24T04:33:55;1.90;;;0.43;;
793;SDS011;380;48.738;9.214;2023-04-24T04:36:21;2.83;;;0.43;;
793;SDS011;380;48.738;9.214;2023-04-24T04:38:48;1.00;;;0.30;;
793;SDS011;380;48.738;9.214;2023-04-24T04:41:14;2.22;;;0.50;;
793;SDS011;380;48.738;9.214;2023-04-24T04:43:41;1.15;;;0.73;;
793;SDS011;380;48.738;9.214;2023-04-24T04:46:07;2.03;;;0.70;;
793;SDS011;380;48.738;9.214;2023-04-24T04:48:35;1.52;;;0.82;;
793;SDS011;380;48.738;9.214;2023-04-24T04:51:01;2.40;;;0.88;;
793;SDS011;380;48.738;9.214;2023-04-24T04:53:27;2.97;;;1.20;;
793;SDS011;380;48.738;9.214;2023-04-24T04:55:53;0.80;;;0.50;;
793;SDS011;380;48.738;9.214;2023-04-24T04:58:19;3.05;;;1.08;;
793;SDS011;380;48.738;9.214;2023-04-24T05:00:46;1.77;;;0.82;;
793;SDS011;380;48.738;9.214;2023-04-24T05:03:12;1.20;;;0.68;;
793;SDS011;380;48.738;9.214;2023-04-24T05:05:38;4.20;;;1.00;;
793;SDS011;380;48.738;9.214;2023-04-24T05:08:06;1.15;;;0.70;;
793;SDS011;380;48.738;9.214;2023-04-24T05:10:32;1.55;;;0.77;;
793;SDS011;380;48.738;9.214;2023-04-24T05:12:58;4.55;;;1.23;;
793;SDS011;380;48.738;9.214;2023-04-24T05:15:24;2.67;;;1.40;;
793;SDS011;380;48.738;9.214;2023-04-24T05:17:50;1.70;;;0.98;;
793;SDS011;380;48.738;9.214;2023-04-24T05:20:16;1.58;;;0.88;;
793;SDS011;380;48.738;9.214;2023-04-24T05:22:42;1.90;;;1.00;;
793;SDS011;380;48.738;9.214;2023-04-24T05:25:08;1.70;;;0.90;;
793;SDS011;380;48.738;9.214;2023-04-24T05:27:34;0.95;;;0.52;;
793;SDS011;380;48.738;9.214;2023-04-24T05:30:00;1.92;;;0.98;;
793;SDS011;380;48.738;9.214;2023-04-24T05:32:26;1.40;;;0.60;;
793;SDS011;380;48.738;9.214;2023-04-24T05:34:52;1.63;;;0.88;;
793;SDS011;380;48.738;9.214;2023-04-24T05:37:18;1.77;;;1.08;;
793;SDS011;380;48.738;9.214;2023-04-24T05:39:44;3.42;;;1.17;;
793;SDS011;380;48.738;9.214;2023-04-24T05:42:10;2.55;;;1.17;;
793;SDS011;380;48.738;9.214;2023-04-24T05:44:36;1.58;;;1.08;;
793;SDS011;380;48.738;9.214;2023-04-24T05:47:02;2.58;;;1.30;;
793;SDS011;380;48.738;9.214;2023-04-24T05:49:28;1.98;;;1.13;;
793;SDS011;380;48.738;9.214;2023-04-24T05:51:54;1.63;;;0.93;;
793;SDS011;380;48.738;9.214;2023-04-24T05:54:20;1.80;;;0.90;;
793;SDS011;380;48.738;9.214;2023-04-24T05:56:46;2.00;;;0.95;;
793;SDS011;380;48.738;9.214;2023-04-24T05:59:12;2.35;;;0.90;;
793;SDS011;380;48.738;9.214;2023-04-24T06:01:38;1.80;;;1.15;;
793;SDS011;380;48.738;9.214;2023-04-24T06:04:04;2.70;;;1.27;;
793;SDS011;380;48.738;9.214;2023-04-24T06:06:30;3.22;;;1.27;;
793;SDS011;380;48.738;9.214;2023-04-24T06:08:57;1.77;;;1.10;;
793;SDS011;380;48.738;9.214;2023-04-24T06:11:23;1.63;;;0.90;;
793;SDS011;380;48.738;9.214;2023-04-24T06:13:49;1.85;;;0.93;;
793;SDS011;380;48.738;9.214;2023-04-24T06:16:16;2.47;;;1.27;;
793;SDS011;380;48.738;9.214;2023-04-24T06:18:42;1.70;;;1.00;;
793;SDS011;380;48.738;9.214;2023-04-24T06:21:08;2.15;;;1.23;;
793;SDS011;380;48.738;9.214;2023-04-24T06:23:34;2.95;;;1.48;;
793;SDS011;380;48.738;9.214;2023-04-24T06:26:01;2.50;;;1.25;;
793;SDS011;380;48.738;9.214;2023-04-24T06:28:27;2.50;;;1.25;;
793;SDS011;380;48.738;9.214;2023-04-24T06:30:52;2.30;;;1.13;;
793;SDS011;380;48.738;9.214;2023-04-24T06:33:18;1.40;;;0.80;;
793;SDS011;380;48.738;9.214;2023-04-24T06:35:44;1.20;;;0.75;;
793;SDS011;380;48.738;9.214;2023-04-24T06:38:10;1.38;;;0.70;;
793;SDS011;380;48.738;9.214;2023-04-24T06:40:36;1.50;;;1.00;;
793;SDS011;380;48.738;9.214;2023-04-24T06:43:02;2.92;;;1.20;;
793;SDS011;380;48.738;9.214;2023-04-24T06:45:29;2.05;;;0.95;;
793;SDS011;380;48.738;9.214;2023-04-24T06:47:55;2.00;;;0.80;;
793;SDS011;380;48.738;9.214;2023-04-24T06:50:21;2.22;;;1.10;;
793;SDS011;380;48.738;9.214;2023-04-24T06:52:47;1.70;;;1.00;;
793;SDS011;380;48.738;9.214;2023-04-24T06:55:13;1.58;;;0.90;;
793;SDS011;380;48.738;9.214;2023-04-24T06:57:41;1.58;;;0.70;;
793;SDS011;380;48.738;9.214;2023-04-24T07:00:07;1.45;;;0.80;;
793;SDS011;380;48.738;9.214;2023-04-24T07:02:34;1.20;;;0.70;;
793;SDS011;380;48.738;9.214;2023-04-24T07:05:00;1.52;;;1.00;;
793;SDS011;380;48.738;9.214;2023-04-24T07:07:27;1.40;;;0.88;;
793;SDS011;380;48.738;9.214;2023-04-24T07:09:53;1.70;;;1.10;;
793;SDS011;380;48.738;9.214;2023-04-24T07:12:19;1.85;;;0.73;;
793;SDS011;380;48.738;9.214;2023-04-24T07:14:46;1.85;;;1.15;;
793;SDS011;380;48.738;9.214;2023-04-24T07:17:12;1.20;;;0.65;;
793;SDS011;380;48.738;9.214;2023-04-24T07:19:39;2.20;;;1.23;;
793;SDS011;380;48.738;9.214;2023-04-24T07:22:05;2.97;;;1.20;;
793;SDS011;380;48.738;9.214;2023-04-24T07:24:31;1.73;;;0.90;;
793;SDS011;380;48.738;9.214;2023-04-24T07:26:57;2.40;;;1.33;;
793;SDS011;380;48.738;9.214;2023-04-24T07:29:24;1.65;;;0.93;;
793;SDS011;380;48.738;9.214;2023-04-24T07:31:50;1.70;;;0.88;;
793;SDS011;380;48.738;9.214;2023-04-24T07:34:16;1.77;;;1.02;;
793;SDS011;380;48.738;9.214;2023-04-24T07:36:42;2.22;;;0.80;;
793;SDS011;380;48.738;9.214;2023-04-24T07:39:08;1.30;;;0.70;;
793;SDS011;380;48.738;9.214;2023-04-24T07:41:34;3.50;;;0.88;;
793;SDS011;380;48.738;9.214;2023-04-24T07:44:00;1.73;;;0.90;;
793;SDS011;380;48.738;9.214;2023-04-24T07:46:26;2.08;;;1.08;;
793;SDS011;380;48.738;9.214;2023-04-24T07:48:54;2.50;;;0.88;;
793;SDS011;380;48.738;9.214;2023-04-24T07:51:21;1.48;;;0.90;;
793;SDS011;380;48.738;9.214;2023-04-24T07:53:47;1.33;;;0.70;;
793;SDS011;380;48.738;9.214;2023-04-24T07:56:13;1.90;;;0.60;;
793;SDS011;380;48.738;9.214;2023-04-24T07:58:39;2.17;;;1.08;;
793;SDS011;380;48.738;9.214;2023-04-24T08:01:05;2.60;;;1.10;;
793;SDS011;380;48.738;9.214;2023-04-24T08:03:31;3.75;;;0.85;;
793;SDS011;380;48.738;9.214;2023-04-24T08:05:56;1.38;;;0.70;;
793;SDS011;380;48.738;9.214;2023-04-24T08:08:23;1.38;;;0.60;;
793;SDS011;380;48.738;9.214;2023-04-24T08:10:49;1.92;;;0.82;;
793;SDS011;380;48.738;9.214;2023-04-24T08:13:15;1.42;;;0.70;;
793;SDS011;380;48.738;9.214;2023-04-24T08:15:41;1.45;;;0.68;;
793;SDS011;380;48.738;9.214;2023-04-24T08:18:07;1.55;;;0.75;;
793;SDS011;380;48.738;9.214;2023-04-24T08:20:33;1.05;;;0.50;;
793;SDS011;380;48.738;9.214;2023-04-24T08:23:00;1.98;;;1.05;;
793;SDS011;380;48.738;9.214;2023-04-24T08:25:26;1.67;;;0.88;;
793;SDS011;380;48.738;9.214;2023-04-24T08:27:52;1.95;;;1.10;;
793;SDS011;380;48.738;9.214;2023-04-24T08:30:18;1.23;;;0.70;;
793;SDS011;380;48.738;9.214;2023-04-24T08:32:44;1.55;;;0.80;;
793;SDS011;380;48.738;9.214;2023-04-24T08:35:10;2.63;;;0.85;;
793;SDS011;380;48.738;9.214;2023-04-24T08:37:36;1.45;;;0.80;;
793;SDS011;380;48.738;9.214;2023-04-24T08:40:35;1.80;;;0.95;;
793;SDS011;380;48.738;9.214;2023-04-24T08:42:55;2.10;;;0.70;;
793;SDS011;380;48.738;9.214;2023-04-24T08:45:22;1.27;;;0.73;;
793;SDS011;380;48.738;9.214;2023-04-24T08:47:48;1.45;;;0.60;;
793;SDS011;380;48.738;9.214;2023-04-24T08:50:15;1.30;;;0.70;;
793;SDS011;380;48.738;9.214;2023-04-24T08:52:41;1.33;;;0.90;;
793;SDS011;380;48.738;9.214;2023-04-24T08:55:08;1.83;;;0.90;;
793;SDS011;380;48.738;9.214;2023-04-24T08:57:34;2.88;;;0.65;;
793;SDS011;380;48.738;9.214;2023-04-24T09:00:01;1.52;;;1.00;;
793;SDS011;380;48.738;9.214;2023-04-24T09:02:28;1.48;;;0.75;;
793;SDS011;380;48.738;9.214;2023-04-24T09:04:54;1.25;;;0.65;;
793;SDS011;380;48.738;9.214;2023-04-24T09:07:22;2.25;;;0.65;;
793;SDS011;380;48.738;9.214;2023-04-24T09:09:50;1.60;;;0.90;;
793;SDS011;380;48.738;9.214;2023-04-24T09:12:17;2.42;;;0.95;;
793;SDS011;380;48.738;9.214;2023-04-24T09:14:43;1.27;;;0.60;;
793;SDS011;380;48.738;9.214;2023-04-24T09:17:10;1.20;;;0.65;;
793;SDS011;380;48.738;9.214;2023-04-24T09:19:36;2.20;;;1.00;;
793;SDS011;380;48.738;9.214;2023-04-24T09:22:05;1.80;;;0.75;;
793;SDS011;380;48.738;9.214;2023-04-24T09:24:34;1.52;;;0.73;;
793;SDS011;380;48.738;9.214;2023-04-24T09:27:00;1.60;;;0.77;;
793;SDS011;380;48.738;9.214;2023-04-24T09:29:26;1.45;;;0.80;;
793;SDS011;380;48.738;9.214;2023-04-24T09:31:53;2.83;;;1.13;;
793;SDS011;380;48.738;9.214;2023-04-24T09:34:22;2.45;;;1.10;;
793;SDS011;380;48.738;9.214;2023-04-24T09:36:49;1.23;;;0.80;;
793;SDS011;380;48.738;9.214;2023-04-24T09:39:15;1.58;;;0.77;;
793;SDS011;380;48.738;9.214;2023-04-24T09:41:51;1.38;;;0.63;;
793;SDS011;380;48.738;9.214;2023-04-24T09:44:18;1.40;;;0.75;;
793;SDS011;380;48.738;9.214;2023-04-24T09:46:57;3.70;;;0.70;;
793;SDS011;380;48.738;9.214;2023-04-24T09:49:26;1.55;;;0.63;;
793;SDS011;380;48.738;9.214;2023-04-24T09:52:06;1.35;;;0.50;;
793;SDS011;380;48.738;9.214;2023-04-24T09:54:32;1.30;;;0.70;;
793;SDS011;380;48.738;9.214;2023-04-24T09:56:58;1.10;;;0.60;;
793;SDS011;380;48.738;9.214;2023-04-24T09:59:25;0.80;;;0.30;;
793;SDS011;380;48.738;9.214;2023-04-24T10:01:51;1.38;;;0.50;;
793;SDS011;380;48.738;9.214;2023-04-24T10:04:24;1.27;;;0.70;;
793;SDS011;380;48.738;9.214;2023-04-24T10:06:50;1.00;;;0.57;;
793;SDS011;380;48.738;9.214;2023-04-24T10:09:17;2.67;;;0.70;;
793;SDS011;380;48.738;9.214;2023-04-24T10:11:44;1.00;;;0.60;;
793;SDS011;380;48.738;9.214;2023-04-24T10:14:12;0.82;;;0.32;;
793;SDS011;380;48.738;9.214;2023-04-24T10:16:38;1.02;;;0.50;;
793;SDS011;380;48.738;9.214;2023-04-24T10:19:05;6.53;;;0.75;;
793;SDS011;380;48.738;9.214;2023-04-24T10:21:32;1.35;;;0.55;;
793;SDS011;380;48.738;9.214;2023-04-24T10:23:58;1.38;;;0.68;;
793;SDS011;380;48.738;9.214;2023-04-24T10:26:25;3.53;;;0.93;;
793;SDS011;380;48.738;9.214;2023-04-24T10:28:51;1.30;;;0.50;;
793;SDS011;380;48.738;9.214;2023-04-24T10:31:18;1.05;;;0.50;;
793;SDS011;380;48.738;9.214;2023-04-24T10:33:44;1.38;;;0.68;;
793;SDS011;380;48.738;9.214;2023-04-24T10:36:11;1.00;;;0.52;;
793;SDS011;380;48.738;9.214;2023-04-24T10:38:39;1.00;;;0.40;;
793;SDS011;380;48.738;9.214;2023-04-24T10:41:07;1.42;;;0.45;;
793;SDS011;380;48.738;9.214;2023-04-24T10:43:34;1.55;;;0.80;;
793;SDS011;380;48.738;9.214;2023-04-24T10:46:01;1.17;;;0.60;;
793;SDS011;380;48.738;9.214;2023-04-24T10:48:28;1.63;;;0.73;;
793;SDS011;380;48.738;9.214;2023-04-24T10:50:54;1.27;;;0.52;;
793;SDS011;380;48.738;9.214;2023-04-24T10:53:23;2.38;;;0.88;;
793;SDS011;380;48.738;9.214;2023-04-24T10:56:15;0.52;;;0.32;;
793;SDS011;380;48.738;9.214;2023-04-24T10:58:39;1.02;;;0.47;;
793;SDS011;380;48.738;9.214;2023-04-24T11:01:08;0.90;;;0.60;;
793;SDS011;380;48.738;9.214;2023-04-24T11:03:34;1.42;;;0.60;;
793;SDS011;380;48.738;9.214;2023-04-24T11:08:31;0.65;;;0.40;;
793;SDS011;380;48.738;9.214;2023-04-24T11:11:07;1.25;;;0.55;;
793;SDS011;380;48.738;9.214;2023-04-24T11:16:20;1.05;;;0.52;;
793;SDS011;380;48.738;9.214;2023-04-24T11:18:49;1.20;;;0.45;;
793;SDS011;380;48.738;9.214;2023-04-24T11:21:18;1.30;;;0.60;;
793;SDS011;380;48.738;9.214;2023-04-24T11:23:44;1.30;;;0.52;;
793;SDS011;380;48.738;9.214;2023-04-24T11:28:49;1.33;;;0.80;;
793;SDS011;380;48.738;9.214;2023-04-24T11:34:15;1.33;;;0.60;;
793;SDS011;380;48.738;9.214;2023-04-24T11:36:45;1.00;;;0.68;;
793;SDS011;380;48.738;9.214;2023-04-24T11:39:12;3.97;;;1.08;;
793;SDS011;380;48.738;9.214;2023-04-24T11:41:38;1.00;;;0.50;;
793;SDS011;380;48.738;9.214;2023-04-24T11:44:05;1.33;;;0.60;;
793;SDS011;380;48.738;9.214;2023-04-24T11:46:31;1.30;;;0.70;;
793;SDS011;380;48.738;9.214;2023-04-24T11:48:58;1.02;;;0.57;;
793;SDS011;380;48.738;9.214;2023-04-24T11:51:24;1.60;;;0.60;;
793;SDS011;380;48.738;9.214;2023-04-24T11:53:51;1.30;;;0.77;;
793;SDS011;380;48.738;9.214;2023-04-24T11:56:18;1.52;;;0.77;;
793;SDS011;380;48.738;9.214;2023-04-24T11:58:44;1.95;;;1.10;;
793;SDS011;380;48.738;9.214;2023-04-24T12:01:11;1.73;;;0.88;;
793;SDS011;380;48.738;9.214;2023-04-24T12:03:37;1.30;;;0.80;;
793;SDS011;380;48.738;9.214;2023-04-24T12:08:33;2.13;;;1.05;;
793;SDS011;380;48.738;9.214;2023-04-24T12:11:03;2.13;;;1.00;;
793;SDS011;380;48.738;9.214;2023-04-24T12:13:29;1.02;;;0.60;;
793;SDS011;380;48.738;9.214;2023-04-24T12:15:59;1.10;;;0.57;;
793;SDS011;380;48.738;9.214;2023-04-24T12:18:25;1.00;;;0.60;;
793;SDS011;380;48.738;9.214;2023-04-24T12:20:51;1.25;;;0.60;;
793;SDS011;380;48.738;9.214;2023-04-24T12:23:32;0.90;;;0.60;;
793;SDS011;380;48.738;9.214;2023-04-24T12:26:00;1.80;;;0.60;;
793;SDS011;380;48.738;9.214;2023-04-24T12:28:34;1.33;;;0.65;;
793;SDS011;380;48.738;9.214;2023-04-24T12:31:00;1.27;;;0.60;;
793;SDS011;380;48.738;9.214;2023-04-24T12:33:26;1.20;;;0.68;;
793;SDS011;380;48.738;9.214;2023-04-24T12:35:52;1.50;;;0.82;;
793;SDS011;380;48.738;9.214;2023-04-24T12:38:21;1.23;;;0.60;;
793;SDS011;380;48.738;9.214;2023-04-24T12:40:47;2.03;;;0.82;;
793;SDS011;380;48.738;9.214;2023-04-24T12:43:17;3.72;;;1.17;;
793;SDS011;380;48.738;9.214;2023-04-24T12:45:43;1.17;;;0.57;;
793;SDS011;380;48.738;9.214;2023-04-24T12:48:12;0.63;;;0.30;;
793;SDS011;380;48.738;9.214;2023-04-24T12:50:42;5.00;;;0.77;;
793;SDS011;380;48.738;9.214;2023-04-24T12:53:08;1.10;;;0.63;;
793;SDS011;380;48.738;9.214;2023-04-24T12:55:34;2.17;;;0.95;;
793;SDS011;380;48.738;9.214;2023-04-24T12:58:00;1.08;;;0.60;;
793;SDS011;380;48.738;9.214;2023-04-24T13:00:27;1.23;;;0.60;;
793;SDS011;380;48.738;9.214;2023-04-24T13:02:53;1.48;;;0.60;;
793;SDS011;380;48.738;9.214;2023-04-24T13:05:19;0.98;;;0.63;;
793;SDS011;380;48.738;9.214;2023-04-24T13:07:45;1.63;;;0.90;;
793;SDS011;380;48.738;9.214;2023-04-24T13:10:11;1.13;;;0.60;;
793;SDS011;380;48.738;9.214;2023-04-24T13:12:38;0.93;;;0.40;;
793;SDS011;380;48.738;9.214;2023-04-24T13:15:05;1.60;;;0.70;;
793;SDS011;380;48.738;9.214;2023-04-24T13:17:31;1.38;;;0.63;;
793;SDS011;380;48.738;9.214;2023-04-24T13:19:58;1.73;;;0.95;;
793;SDS011;380;48.738;9.214;2023-04-24T13:22:24;1.98;;;0.82;;
793;SDS011;380;48.738;9.214;2023-04-24T13:24:50;0.90;;;0.60;;
793;SDS011;380;48.738;9.214;2023-04-24T13:27:16;1.27;;;0.70;;
793;SDS011;380;48.738;9.214;2023-04-24T13:29:42;1.60;;;0.77;;
793;SDS011;380;48.738;9.214;2023-04-24T13:32:09;2.13;;;0.50;;
793;SDS011;380;48.738;9.214;2023-04-24T13:34:35;1.38;;;0.60;;
793;SDS011;380;48.738;9.214;2023-04-24T13:37:01;1.52;;;0.82;;
793;SDS011;380;48.738;9.214;2023-04-24T13:39:28;1.67;;;0.75;;
793;SDS011;380;48.738;9.214;2023-04-24T13:41:54;0.88;;;0.52;;
793;SDS011;380;48.738;9.214;2023-04-24T13:44:21;1.27;;;0.70;;
793;SDS011;380;48.738;9.214;2023-04-24T13:46:47;1.48;;;0.90;;
793;SDS011;380;48.738;9.214;2023-04-24T13:49:14;1.42;;;0.80;;
793;SDS011;380;48.738;9.214;2023-04-24T13:51:40;1.10;;;0.60;;
793;SDS011;380;48.738;9.214;2023-04-24T13:54:06;2.03;;;1.17;;
793;SDS011;380;48.738;9.214;2023-04-24T13:56:32;1.48;;;0.80;;
793;SDS011;380;48.738;9.214;2023-04-24T13:58:59;1.45;;;0.70;;
793;SDS011;380;48.738;9.214;2023-04-24T14:01:25;1.98;;;0.80;;
793;SDS011;380;48.738;9.214;2023-04-24T14:03:51;1.30;;;0.68;;
793;SDS011;380;48.738;9.214;2023-04-24T14:06:18;1.73;;;1.00;;
793;SDS011;380;48.738;9.214;2023-04-24T14:08:44;1.17;;;0.80;;
793;SDS011;380;48.738;9.214;2023-04-24T14:11:10;1.75;;;0.88;;
793;SDS011;380;48.738;9.214;2023-04-24T14:13:36;1.80;;;0.95;;
793;SDS011;380;48.738;9.214;2023-04-24T14:16:02;1.48;;;0.70;;
793;SDS011;380;48.738;9.214;2023-04-24T14:18:28;1.88;;;0.98;;
793;SDS011;380;48.738;9.214;2023-04-24T14:20:55;1.67;;;1.02;;
793;SDS011;380;48.738;9.214;2023-04-24T14:23:21;2.47;;;1.38;;
793;SDS011;380;48.738;9.214;2023-04-24T14:25:46;1.75;;;0.82;;
793;SDS011;380;48.738;9.214;2023-04-24T14:28:17;1.92;;;0.90;;
793;SDS011;380;48.738;9.214;2023-04-24T14:30:44;1.10;;;0.68;;
793;SDS011;380;48.738;9.214;2023-04-24T14:33:10;1.95;;;0.95;;
793;SDS011;380;48.738;9.214;2023-04-24T14:35:37;1.88;;;0.85;;
793;SDS011;380;48.738;9.214;2023-04-24T14:38:02;1.50;;;0.80;;
793;SDS011;380;48.738;9.214;2023-04-24T14:40:28;1.52;;;0.80;;
793;SDS011;380;48.738;9.214;2023-04-24T14:42:56;1.70;;;0.90;;
793;SDS011;380;48.738;9.214;2023-04-24T14:45:22;2.30;;;1.60;;
793;SDS011;380;48.738;9.214;2023-04-24T14:47:48;3.50;;;1.20;;
793;SDS011;380;48.738;9.214;2023-04-24T14:50:14;1.23;;;0.82;;
793;SDS011;380;48.738;9.214;2023-04-24T14:52:40;2.03;;;1.05;;
793;SDS011;380;48.738;9.214;2023-04-24T14:55:06;3.08;;;1.40;;
793;SDS011;380;48.738;9.214;2023-04-24T14:57:33;2.10;;;1.10;;
793;SDS011;380;48.738;9.214;2023-04-24T14:59:59;2.72;;;1.35;;
793;SDS011;380;48.738;9.214;2023-04-24T15:02:25;1.75;;;0.82;;
793;SDS011;380;48.738;9.214;2023-04-24T15:04:51;1.83;;;1.15;;
793;SDS011;380;48.738;9.214;2023-04-24T15:07:17;2.53;;;1.30;;
793;SDS011;380;48.738;9.214;2023-04-24T15:09:43;1.63;;;0.90;;
793;SDS011;380;48.738;9.214;2023-04-24T15:12:11;2.83;;;1.10;;
793;SDS011;380;48.738;9.214;2023-04-24T15:14:37;2.72;;;1.45;;
793;SDS011;380;48.738;9.214;2023-04-24T15:17:03;1.90;;;0.88;;
793;SDS011;380;48.738;9.214;2023-04-24T15:19:29;1.95;;;1.00;;
793;SDS011;380;48.738;9.214;2023-04-24T15:21:55;1.85;;;1.02;;
793;SDS011;380;48.738;9.214;2023-04-24T15:24:21;2.00;;;1.02;;
793;SDS011;380;48.738;9.214;2023-04-24T15:26:47;2.08;;;1.20;;
793;SDS011;380;48.738;9.214;2023-04-24T15:29:13;1.55;;;0.95;;
793;SDS011;380;48.738;9.214;2023-04-24T15:31:39;1.98;;;0.85;;
793;SDS011;380;48.738;9.214;2023-04-24T15:34:05;2.15;;;1.20;;
793;SDS011;380;48.738;9.214;2023-04-24T15:36:31;1.50;;;0.77;;
793;SDS011;380;48.738;9.214;2023-04-24T15:38:58;1.52;;;0.77;;
793;SDS011;380;48.738;9.214;2023-04-24T15:41:24;1.63;;;0.70;;
793;SDS011;380;48.738;9.214;2023-04-24T15:43:49;1.83;;;0.98;;
793;SDS011;380;48.738;9.214;2023-04-24T15:46:15;1.63;;;0.98;;
793;SDS011;380;48.738;9.214;2023-04-24T15:48:41;2.08;;;1.00;;
793;SDS011;380;48.738;9.214;2023-04-24T15:51:08;1.38;;;0.85;;
793;SDS011;380;48.738;9.214;2023-04-24T15:53:34;2.05;;;1.05;;